Time;durP1;ratioP1;P1;durP2;ratioP2;P2;SDS_P1;SDS_P2;PMS_P1;PMS_P2;Temp;Humidity;BMP_temperature;BMP_pressure;BME280_temperature;BME280_humidity;BME280_pressure;Samples;Min_cycle;Max_cycle;Signal;HPM_P1;HPM_P2
2023/10/01 00:00:21;;;;;;;10.68;3.40;;;;;;;14.60;79.71;101720.75;4989104;28;20144;-62
2023/10/01 00:02:51;;;;;;;10.43;3.78;;;;;;;14.59;79.69;101714.63;4987814;28;20077;-60
2023/10/01 00:05:22;;;;;;;10.13;4.18;;;;;;;14.61;79.90;101714.50;4993551;28;20050;-62
2023/10/01 00:07:51;;;;;;;13.07;4.18;;;;;;;14.59;79.88;101716.38;4991804;28;20077;-61
2023/10/01 00:10:20;;;;;;;10.48;3.90;;;;;;;14.60;79.88;101716.31;4991082;28;20046;-62
2023/10/01 00:12:53;;;;;;;11.90;3.65;;;;;;;14.60;79.78;101711.00;4990439;28;20051;-62
2023/10/01 00:15:23;;;;;;;15.10;5.40;;;;;;;14.58;80.07;101704.94;4990480;28;20687;-61
2023/10/01 00:17:51;;;;;;;13.73;4.32;;;;;;;14.58;80.22;101704.09;4991162;28;20069;-60
2023/10/01 00:20:29;;;;;;;12.65;4.18;;;;;;;14.61;79.92;101706.56;4999168;28;20073;-62
2023/10/01 00:23:00;;;;;;;8.88;3.80;;;;;;;14.62;79.40;101709.13;4994435;28;20066;-61
2023/10/01 00:25:32;;;;;;;10.13;4.03;;;;;;;14.63;79.84;101697.59;4987615;28;20074;-60
2023/10/01 00:28:00;;;;;;;8.20;3.28;;;;;;;14.62;79.63;101701.16;4993680;28;20065;-61
2023/10/01 00:30:34;;;;;;;8.30;3.47;;;;;;;14.60;79.87;101705.72;4991212;28;20078;-61
2023/10/01 00:33:06;;;;;;;9.65;4.13;;;;;;;14.59;80.14;101706.66;4989392;28;20465;-60
2023/10/01 00:35:38;;;;;;;12.23;3.90;;;;;;;14.57;80.27;101708.53;4996072;28;20050;-61
2023/10/01 00:38:06;;;;;;;11.48;4.25;;;;;;;14.58;80.22;101704.94;4997262;28;20074;-63
2023/10/01 00:40:34;;;;;;;11.55;3.53;;;;;;;14.54;80.75;101695.44;4992066;28;20050;-61
2023/10/01 00:43:03;;;;;;;10.20;4.18;;;;;;;14.47;81.44;101691.44;4990582;28;20046;-61
2023/10/01 00:45:31;;;;;;;10.60;4.32;;;;;;;14.44;81.92;101691.59;4992437;28;20096;-60
2023/10/01 00:48:13;;;;;;;13.98;4.55;;;;;;;14.42;81.76;101686.41;4994739;28;20043;-60
2023/10/01 00:50:41;;;;;;;10.85;3.83;;;;;;;14.42;81.62;101688.22;4995450;28;20070;-63
2023/10/01 00:53:09;;;;;;;7.57;3.80;;;;;;;14.42;81.33;101682.91;4994005;28;20576;-62
2023/10/01 00:55:37;;;;;;;8.60;3.80;;;;;;;14.40;81.42;101692.72;4990885;28;20145;-61
2023/10/01 00:58:04;;;;;;;11.68;4.35;;;;;;;14.35;82.18;101686.84;4995265;28;20054;-61
2023/10/01 01:00:32;;;;;;;12.73;4.88;;;;;;;14.37;82.62;101687.63;4988467;28;20058;-62
2023/10/01 01:03:09;;;;;;;12.50;4.85;;;;;;;14.35;82.49;101687.69;4995473;28;20141;-65
2023/10/01 01:05:57;;;;;;;9.63;4.65;;;;;;;14.36;82.03;101689.44;4994970;23;20470;-58
2023/10/01 01:08:34;;;;;;;17.48;5.97;;;;;;;14.38;82.08;101694.63;4978959;28;20069;-61
2023/10/01 01:11:01;;;;;;;11.65;4.85;;;;;;;14.36;82.69;101689.44;4974566;28;20233;-59
2023/10/01 01:13:30;;;;;;;10.18;5.10;;;;;;;14.35;82.50;101685.03;4971497;28;20069;-60
2023/10/01 01:15:57;;;;;;;13.57;5.60;;;;;;;14.31;83.04;101675.56;4952578;28;20517;-60
2023/10/01 01:18:26;;;;;;;12.10;5.45;;;;;;;14.30;83.42;101680.97;4953138;28;20051;-60
2023/10/01 01:21:05;;;;;;;9.95;4.55;;;;;;;14.30;83.52;101671.22;4957507;28;20490;-60
2023/10/01 01:23:32;;;;;;;14.73;4.90;;;;;;;14.30;83.67;101671.22;4951199;28;20089;-60
2023/10/01 01:25:59;;;;;;;14.35;5.45;;;;;;;14.30;83.34;101662.41;4949601;28;20572;-53
2023/10/01 01:28:30;;;;;;;11.77;4.72;;;;;;;14.29;83.02;101658.94;4952077;28;20074;-56
2023/10/01 01:30:59;;;;;;;13.18;5.28;;;;;;;14.30;83.45;101665.06;4947866;28;20606;-59
2023/10/01 01:33:40;;;;;;;8.98;4.72;;;;;;;14.26;83.65;101664.38;4952384;28;20161;-55
2023/10/01 01:36:17;;;;;;;8.88;4.32;;;;;;;14.22;83.64;101657.56;4948301;28;20139;-58
2023/10/01 01:39:10;;;;;;;8.30;4.38;;;;;;;14.22;83.68;101656.72;4953787;28;20493;-60
2023/10/01 01:41:48;;;;;;;9.50;4.70;;;;;;;14.21;83.99;101668.25;4951745;28;20078;-59
2023/10/01 01:44:16;;;;;;;13.02;5.00;;;;;;;14.10;84.71;101668.88;4951898;28;20119;-59
2023/10/01 01:46:50;;;;;;;13.45;4.97;;;;;;;14.09;84.48;101665.34;4951232;28;20164;-59
2023/10/01 01:49:18;;;;;;;12.63;4.38;;;;;;;14.06;84.44;101664.69;4950653;28;20983;-60
2023/10/01 01:51:56;;;;;;;10.98;4.18;;;;;;;14.05;84.12;101670.91;4952467;28;20059;-61
2023/10/01 01:54:36;;;;;;;10.13;3.95;;;;;;;14.03;84.04;101663.06;4949781;28;20138;-60
2023/10/01 01:57:06;;;;;;;12.07;4.78;;;;;;;14.03;84.22;101655.13;4950422;28;20055;-60
2023/10/01 01:59:34;;;;;;;12.13;4.78;;;;;;;14.03;83.98;101651.63;4948618;28;20101;-59
2023/10/01 02:02:01;;;;;;;9.02;4.60;;;;;;;14.04;83.83;101642.72;4948863;28;20150;-59
2023/10/01 02:04:29;;;;;;;12.80;4.30;;;;;;;14.04;84.05;101646.22;4952691;28;20056;-57
2023/10/01 02:06:56;;;;;;;12.77;4.20;;;;;;;14.04;83.96;101653.31;4954584;28;20529;-61
2023/10/01 02:09:24;;;;;;;8.50;4.20;;;;;;;14.05;83.50;101652.38;4949545;28;20165;-59
2023/10/01 02:11:53;;;;;;;8.18;4.28;;;;;;;14.04;83.36;101653.31;4957451;28;20075;-60
2023/10/01 02:14:34;;;;;;;10.85;4.25;;;;;;;14.01;83.58;101654.38;4959961;28;20134;-60
2023/10/01 02:17:19;;;;;;;8.65;4.20;;;;;;;13.99;83.52;101656.22;4951573;28;20126;-60
2023/10/01 02:19:46;;;;;;;8.02;3.63;;;;;;;13.97;83.24;101652.84;4960293;28;20656;-59
2023/10/01 02:22:16;;;;;;;12.15;4.00;;;;;;;13.98;83.47;101651.03;4952940;28;20079;-57
2023/10/01 02:24:45;;;;;;;8.85;4.03;;;;;;;13.97;83.13;101654.63;4954087;28;20480;-58
2023/10/01 02:27:14;;;;;;;10.90;3.95;;;;;;;13.92;83.35;101649.59;4956430;28;20191;-61
2023/10/01 02:32:29;;;;;;;8.95;4.25;;;;;;;13.87;83.07;101636.63;4946492;28;20051;-61
2023/10/01 02:34:59;;;;;;;9.15;4.15;;;;;;;13.87;83.11;101633.97;4955696;28;20074;-61
2023/10/01 02:37:35;;;;;;;8.23;4.03;;;;;;;13.88;83.36;101638.31;4954281;28;20046;-59
2023/10/01 02:40:13;;;;;;;9.38;3.38;;;;;;;13.87;83.10;101631.31;4953624;28;20114;-60
2023/10/01 02:42:43;;;;;;;13.65;3.83;;;;;;;13.89;82.82;101631.22;4951442;28;20154;-60
2023/10/01 02:48:41;;;;;;;9.48;3.90;;;;;;;13.84;83.34;101623.56;4942721;28;20134;-60
2023/10/01 02:50:51;;;;;;;12.43;4.40;;;;;;;13.85;82.88;101617.31;4955697;28;20047;-60
2023/10/01 02:53:23;;;;;;;11.18;4.15;;;;;;;13.82;83.35;101608.69;4958549;28;20061;-59
2023/10/01 02:55:51;;;;;;;10.93;4.00;;;;;;;13.83;83.40;101610.41;4953122;28;20137;-59
2023/10/01 02:58:32;;;;;;;9.00;4.00;;;;;;;13.81;83.15;101606.97;4961406;28;20063;-58
2023/10/01 03:01:04;;;;;;;12.35;4.35;;;;;;;13.82;83.02;101616.63;4951067;28;20043;-60
2023/10/01 03:03:32;;;;;;;9.32;3.95;;;;;;;13.80;82.94;101613.22;4955873;28;20059;-61
2023/10/01 03:06:08;;;;;;;16.85;5.10;;;;;;;13.79;83.36;101614.16;4952266;28;20091;-60
2023/10/01 03:11:22;;;;;;;10.77;4.20;;;;;;;13.72;83.82;101611.00;4959839;28;20082;-59
2023/10/01 03:13:54;;;;;;;8.77;4.00;;;;;;;13.67;84.36;101615.69;4958222;28;20517;-61
2023/10/01 03:16:44;;;;;;;10.32;4.47;;;;;;;13.67;84.12;101611.25;4958081;28;20055;-59
2023/10/01 03:19:24;;;;;;;8.88;4.20;;;;;;;13.66;84.23;101621.94;4960322;28;20166;-61
2023/10/01 03:24:39;;;;;;;12.50;4.10;;;;;;;13.67;84.67;101624.50;4953695;28;20063;-60
2023/10/01 03:27:41;;;;;;;9.98;3.55;;;;;;;13.68;84.07;101626.19;4954350;28;20086;-57
2023/10/01 03:30:09;;;;;;;7.18;3.15;;;;;;;13.64;84.61;101626.44;4951269;28;20079;-61
2023/10/01 03:32:40;;;;;;;7.93;3.47;;;;;;;13.65;84.41;101615.81;4959539;28;20078;-58
2023/10/01 03:35:08;;;;;;;8.95;3.95;;;;;;;13.65;84.32;101623.75;4957548;28;20149;-59
2023/10/01 03:37:38;;;;;;;9.02;3.25;;;;;;;13.65;84.52;101621.09;4959853;28;20133;-59
2023/10/01 03:40:18;;;;;;;9.70;3.85;;;;;;;13.64;84.74;101629.97;4960127;28;20065;-59
2023/10/01 03:42:51;;;;;;;13.00;3.78;;;;;;;13.63;85.15;101635.34;4954198;28;20198;-60
2023/10/01 03:45:37;;;;;;;11.52;3.90;;;;;;;13.65;84.86;101631.69;4959352;28;20058;-59
2023/10/01 03:48:06;;;;;;;13.18;3.85;;;;;;;13.65;84.84;101629.03;4956611;28;20082;-60
2023/10/01 03:50:45;;;;;;;14.82;4.38;;;;;;;13.59;85.00;101621.41;4953927;28;20070;-57
2023/10/01 03:53:17;;;;;;;9.18;4.05;;;;;;;13.61;85.17;101627.50;4959199;28;20322;-58
2023/10/01 03:55:46;;;;;;;13.82;4.28;;;;;;;13.62;85.14;101631.84;4955179;28;20146;-58
2023/10/01 03:58:26;;;;;;;10.68;3.30;;;;;;;13.56;85.48;101623.41;4960839;28;20445;-56
2023/10/01 04:00:54;;;;;;;11.82;3.80;;;;;;;13.60;85.38;101630.22;4949659;28;20075;-57
2023/10/01 04:03:21;;;;;;;13.38;3.95;;;;;;;13.52;85.91;101628.00;4951638;28;20117;-59
2023/10/01 04:05:56;;;;;;;11.63;3.50;;;;;;;13.57;85.95;101620.66;4957227;28;20055;-57
2023/10/01 04:08:23;;;;;;;10.70;3.33;;;;;;;13.59;85.63;101621.41;4948711;28;20059;-59
2023/10/01 04:10:57;;;;;;;12.52;3.70;;;;;;;13.63;85.41;101616.81;4950443;28;20094;-58
2023/10/01 04:13:27;;;;;;;11.80;3.97;;;;;;;13.63;85.39;101609.72;4953047;28;20061;-59
2023/10/01 04:15:55;;;;;;;11.18;4.20;;;;;;;13.59;85.98;101602.91;4959676;28;20059;-60
2023/10/01 04:18:24;;;;;;;9.45;3.67;;;;;;;13.63;85.61;101608.88;4952630;28;20102;-60
2023/10/01 04:23:32;;;;;;;12.07;3.42;;;;;;;13.68;85.38;101612.97;4954895;28;20058;-62
2023/10/01 04:26:06;;;;;;;11.60;3.88;;;;;;;13.69;85.35;101611.19;4953002;28;20118;-60
2023/10/01 04:28:37;;;;;;;13.98;4.50;;;;;;;13.70;85.43;101606.75;4953791;28;20057;-60
2023/10/01 04:31:14;;;;;;;8.05;3.75;;;;;;;13.66;85.30;101608.72;4954027;28;20110;-60
2023/10/01 04:33:48;;;;;;;10.98;4.13;;;;;;;13.66;85.22;101612.22;4954639;28;20245;-61
2023/10/01 04:36:17;;;;;;;11.55;3.42;;;;;;;13.64;85.59;101611.44;4957988;28;20050;-61
2023/10/01 04:38:46;;;;;;;8.27;3.47;;;;;;;13.67;85.06;101613.91;4957810;28;20501;-60
2023/10/01 04:41:16;;;;;;;12.88;3.70;;;;;;;13.71;85.18;101619.03;4950728;28;20139;-60
2023/10/01 04:43:55;;;;;;;8.02;3.53;;;;;;;13.70;84.90;101612.91;4954356;28;20449;-61
2023/10/01 04:46:25;;;;;;;12.35;3.70;;;;;;;13.72;84.81;101620.75;4953382;28;20051;-59
2023/10/01 04:48:52;;;;;;;10.40;4.40;;;;;;;13.73;84.82;101625.94;4955719;28;20104;-59
2023/10/01 04:51:21;;;;;;;13.02;4.10;;;;;;;13.74;85.14;101626.81;4963509;28;20039;-60
2023/10/01 04:53:49;;;;;;;9.30;3.95;;;;;;;13.73;84.76;101622.44;4952205;28;20098;-56
2023/10/01 04:56:25;;;;;;;8.27;3.45;;;;;;;13.74;84.76;101618.88;4952646;28;20142;-58
2023/10/01 04:58:54;;;;;;;9.27;4.03;;;;;;;13.73;84.82;101623.28;4954737;28;20458;-59
2023/10/01 05:01:24;;;;;;;10.38;4.20;;;;;;;13.75;84.44;101628.50;4948427;28;20058;-58
2023/10/01 05:03:52;;;;;;;8.23;3.80;;;;;;;13.74;84.78;101621.53;4949645;28;20083;-59
2023/10/01 05:06:20;;;;;;;12.10;3.85;;;;;;;13.73;85.49;101630.38;4961948;28;20137;-62
2023/10/01 05:08:56;;;;;;;10.70;4.00;;;;;;;13.73;85.22;101619.78;4952058;28;20130;-59
2023/10/01 05:11:31;;;;;;;8.90;3.70;;;;;;;13.73;85.47;101620.63;4945384;28;20045;-57
2023/10/01 05:13:59;;;;;;;9.32;3.92;;;;;;;13.77;85.24;101616.03;4955438;28;20115;-60
2023/10/01 05:16:26;;;;;;;10.40;4.32;;;;;;;13.76;85.70;101624.91;4951636;28;20169;-57
2023/10/01 05:19:10;;;;;;;12.38;4.50;;;;;;;13.79;85.31;101625.59;4956123;28;20075;-59
2023/10/01 05:21:47;;;;;;;8.95;3.95;;;;;;;13.82;84.99;101622.75;4951413;28;20106;-61
2023/10/01 05:24:35;;;;;;;12.48;4.70;;;;;;;13.87;84.80;101627.84;4953009;28;20074;-61
2023/10/01 05:27:08;;;;;;;10.80;3.80;;;;;;;13.86;84.61;101634.88;4949181;28;20469;-59
2023/10/01 05:29:38;;;;;;;7.47;3.75;;;;;;;13.87;84.77;101630.47;4954907;28;20138;-60
2023/10/01 05:32:06;;;;;;;12.50;4.25;;;;;;;13.85;84.69;101627.91;4933431;28;20534;-60
2023/10/01 05:34:33;;;;;;;11.55;3.53;;;;;;;13.91;84.70;101626.69;4952265;28;20059;-57
2023/10/01 05:37:12;;;;;;;11.43;4.03;;;;;;;13.87;84.87;101620.75;4956722;28;20130;-59
2023/10/01 05:39:55;;;;;;;8.23;3.70;;;;;;;13.91;84.47;101627.56;4951939;28;20173;-59
2023/10/01 05:42:26;;;;;;;9.95;4.10;;;;;;;13.91;84.73;101635.50;4946912;28;20062;-56
2023/10/01 05:44:54;;;;;;;8.70;3.65;;;;;;;13.98;84.63;101636.00;4950089;28;20146;-59
2023/10/01 05:47:22;;;;;;;11.50;3.78;;;;;;;14.02;84.47;101626.94;4958880;28;20078;-58
2023/10/01 05:49:53;;;;;;;13.50;4.18;;;;;;;13.97;84.13;101633.44;4949730;28;20140;-58
2023/10/01 05:52:24;;;;;;;7.78;3.80;;;;;;;13.95;84.51;101633.53;4954863;28;20450;-60
2023/10/01 05:54:52;;;;;;;14.95;3.70;;;;;;;13.97;84.65;101628.16;4955546;28;20139;-60
2023/10/01 05:57:21;;;;;;;10.02;4.00;;;;;;;14.07;84.38;101621.38;4954371;28;20049;-59
2023/10/01 05:59:57;;;;;;;12.27;3.67;;;;;;;14.15;84.31;101617.34;4947789;28;20138;-58
2023/10/01 06:02:47;;;;;;;15.00;4.25;;;;;;;14.25;83.64;101614.16;4949774;28;20134;-57
2023/10/01 06:05:33;;;;;;;11.18;3.25;;;;;;;14.32;83.24;101611.06;4958280;28;20130;-60
2023/10/01 06:08:12;;;;;;;14.50;4.03;;;;;;;14.40;82.84;101613.25;4956608;28;20085;-59
2023/10/01 06:11:38;;;;;;;9.88;3.60;;;;;;;14.48;82.28;101611.03;4953698;28;20205;-59
2023/10/01 06:13:51;;;;;;;11.82;3.70;;;;;;;14.46;81.65;101609.41;4947545;28;20048;-60
2023/10/01 06:16:24;;;;;;;10.38;4.05;;;;;;;14.52;81.38;101614.38;4949986;28;20146;-58
2023/10/01 06:18:56;;;;;;;7.38;3.75;;;;;;;14.50;80.97;101614.47;4949340;28;20079;-61
2023/10/01 06:21:31;;;;;;;12.00;4.20;;;;;;;14.54;80.88;101615.97;4949646;28;20553;-62
2023/10/01 06:24:04;;;;;;;8.63;4.10;;;;;;;14.63;81.03;101622.50;4956076;28;20142;-59
2023/10/01 06:26:45;;;;;;;13.25;4.22;;;;;;;14.71;81.00;101614.97;4956713;28;20048;-59
2023/10/01 06:29:13;;;;;;;10.45;4.18;;;;;;;14.81;80.40;101620.53;4957148;28;20055;-62
2023/10/01 06:31:48;;;;;;;14.75;4.13;;;;;;;14.86;79.62;101615.81;4953509;28;20126;-61
2023/10/01 06:34:21;;;;;;;12.70;4.03;;;;;;;14.87;78.90;101612.25;4954256;28;20082;-60
2023/10/01 06:36:58;;;;;;;15.70;4.43;;;;;;;14.98;79.35;101611.56;4961352;28;20514;-57
2023/10/01 06:39:30;;;;;;;7.53;3.38;;;;;;;14.98;78.84;101620.38;4955393;28;20126;-61
2023/10/01 06:44:48;;;;;;;10.55;4.03;;;;;;;15.05;78.76;101624.38;4959885;28;20105;-59
2023/10/01 06:47:16;;;;;;;8.18;3.80;;;;;;;15.20;78.40;101618.09;4954475;28;20588;-60
2023/10/01 06:49:57;;;;;;;13.85;4.65;;;;;;;15.28;77.74;101614.97;4953290;28;20122;-59
2023/10/01 06:52:26;;;;;;;11.57;3.88;;;;;;;15.34;77.27;101613.72;4953594;28;20498;-59
2023/10/01 06:55:00;;;;;;;8.77;3.78;;;;;;;15.33;76.60;101617.34;4958141;28;20050;-60
2023/10/01 06:57:31;;;;;;;12.98;4.43;;;;;;;15.36;76.09;101619.81;4953348;28;20138;-60
2023/10/01 07:00:03;;;;;;;11.32;4.00;;;;;;;15.39;76.54;101619.59;4955054;28;20093;-60
2023/10/01 07:02:31;;;;;;;10.48;3.83;;;;;;;15.42;75.82;101617.59;4955656;28;20039;-58
2023/10/01 07:04:58;;;;;;;11.60;4.28;;;;;;;15.43;76.09;101616.63;4960987;28;20141;-59
2023/10/01 07:07:29;;;;;;;7.65;3.50;;;;;;;15.44;75.59;101629.00;4953953;28;20544;-56
2023/10/01 07:09:56;;;;;;;9.80;4.00;;;;;;;15.57;75.59;101625.53;4960500;28;20082;-57
2023/10/01 07:12:24;;;;;;;11.40;4.80;;;;;;;15.48;74.94;101634.94;4953435;28;20059;-60
2023/10/01 07:14:52;;;;;;;10.02;3.40;;;;;;;15.47;74.61;101632.38;4960523;28;20047;-60
2023/10/01 07:17:24;;;;;;;10.18;4.40;;;;;;;15.47;74.79;101633.22;4952970;28;20078;-59
2023/10/01 07:20:18;;;;;;;9.80;4.10;;;;;;;15.60;75.04;101634.16;4952067;28;20142;-59
2023/10/01 07:22:46;;;;;;;8.40;3.38;;;;;;;15.90;74.30;101635.81;4958381;28;20043;-59
2023/10/01 07:25:37;;;;;;;7.68;3.40;;;;;;;15.92;72.85;101634.75;4956276;28;20035;-56
2023/10/01 07:28:12;;;;;;;10.63;3.63;;;;;;;15.91;71.64;101640.19;4958938;28;20051;-59
2023/10/01 07:30:46;;;;;;;9.05;3.55;;;;;;;15.68;72.42;101639.00;4958835;28;20457;-59
2023/10/01 07:33:17;;;;;;;13.30;4.35;;;;;;;15.68;72.84;101645.16;4959578;28;20299;-56
2023/10/01 07:35:45;;;;;;;8.80;3.45;;;;;;;15.83;72.85;101642.47;4953257;28;20078;-59
2023/10/01 07:38:15;;;;;;;9.35;3.90;;;;;;;16.02;72.50;101642.97;4960720;28;20085;-56
2023/10/01 07:40:57;;;;;;;8.07;3.70;;;;;;;15.97;71.41;101645.06;4960889;28;20050;-59
2023/10/01 07:43:30;;;;;;;7.13;3.50;;;;;;;16.03;71.13;101651.78;4952694;28;20113;-60
2023/10/01 07:46:07;;;;;;;8.30;3.80;;;;;;;16.13;70.46;101660.88;4958404;28;20167;-59
2023/10/01 07:48:38;;;;;;;7.38;3.28;;;;;;;16.44;69.91;101662.34;4959114;28;20178;-60
2023/10/01 07:51:22;;;;;;;11.20;4.68;;;;;;;16.51;68.43;101653.00;4960818;28;20082;-58
2023/10/01 07:53:52;;;;;;;6.82;3.03;;;;;;;16.49;68.65;101656.72;4958022;28;20066;-60
2023/10/01 07:56:21;;;;;;;11.52;4.15;;;;;;;16.60;68.33;101652.38;4958451;28;20047;-60
2023/10/01 07:59:16;;;;;;;16.73;4.38;;;;;;;16.75;67.49;101647.88;4953703;28;20534;-59
2023/10/01 08:01:45;;;;;;;;;;;;;;;16.78;67.10;101646.78;4957799;28;20489;-62
2023/10/01 08:07:15;;;;;;;10.90;4.15;;;;;;;17.11;66.71;101638.25;4951666;28;20083;-58
2023/10/01 08:09:46;;;;;;;7.32;3.45;;;;;;;17.25;66.61;101634.66;4956263;28;20092;-59
2023/10/01 08:12:14;;;;;;;14.40;3.50;;;;;;;17.44;66.40;101640.34;4961866;28;20084;-59
2023/10/01 08:14:41;;;;;;;14.70;4.47;;;;;;;17.44;65.40;101635.03;4979305;23;20142;-60
2023/10/01 08:17:08;;;;;;;11.73;3.70;;;;;;;17.09;66.66;101633.06;4968338;28;20148;-58
2023/10/01 08:19:44;;;;;;;11.18;4.07;;;;;;;16.90;67.29;101641.47;4981498;28;20114;-59
2023/10/01 08:22:14;;;;;;;9.00;3.95;;;;;;;16.88;67.59;101626.56;4973737;28;20105;-60
2023/10/01 08:24:49;;;;;;;10.75;3.35;;;;;;;17.00;67.71;101630.19;4974882;28;20047;-58
2023/10/01 08:27:34;;;;;;;12.82;4.25;;;;;;;17.12;66.99;101629.34;4972700;28;20055;-61
2023/10/01 08:30:18;;;;;;;18.30;4.73;;;;;;;17.09;67.50;101640.19;4968240;28;20149;-57
2023/10/01 08:32:53;;;;;;;10.23;3.88;;;;;;;16.93;68.13;101646.59;4965835;28;20101;-60
2023/10/01 08:35:32;;;;;;;10.68;3.50;;;;;;;17.16;67.65;101644.13;4974776;28;20067;-59
2023/10/01 08:38:00;;;;;;;8.00;3.20;;;;;;;17.38;66.13;101630.13;4977534;28;20054;-60
2023/10/01 08:40:28;;;;;;;9.48;4.32;;;;;;;17.36;65.86;101640.91;4973641;28;20047;-62
2023/10/01 08:42:58;;;;;;;11.85;3.85;;;;;;;17.39;65.68;101647.81;4977264;28;20185;-59
2023/10/01 08:45:37;;;;;;;7.53;3.63;;;;;;;17.30;66.03;101644.00;4977852;28;20588;-57
2023/10/01 08:48:07;;;;;;;9.10;3.60;;;;;;;17.42;65.48;101644.91;4971917;28;20172;-56
2023/10/01 08:50:40;;;;;;;9.73;3.88;;;;;;;17.40;65.13;101642.38;4963612;28;20047;-59
2023/10/01 08:53:12;;;;;;;14.15;4.20;;;;;;;17.58;65.41;101648.19;4972333;28;20445;-59
2023/10/01 08:58:25;;;;;;;8.43;3.72;;;;;;;17.64;64.69;101647.75;4963385;28;20611;-59
2023/10/01 09:00:56;;;;;;;8.40;3.60;;;;;;;17.48;65.42;101651.66;4955087;28;20134;-61
2023/10/01 09:03:29;;;;;;;10.77;4.38;;;;;;;17.44;65.13;101654.53;4968908;28;20137;-58
2023/10/01 09:06:05;;;;;;;11.02;3.63;;;;;;;17.41;65.62;101653.88;4967444;28;20070;-61
2023/10/01 09:08:42;;;;;;;7.68;3.50;;;;;;;17.46;65.52;101662.38;4972900;28;20046;-61
2023/10/01 09:11:14;;;;;;;12.23;4.13;;;;;;;17.31;65.75;101653.69;4965869;28;20090;-60
2023/10/01 09:13:58;;;;;;;9.80;3.60;;;;;;;17.19;66.25;101641.25;4970608;28;20054;-61
2023/10/01 09:16:32;;;;;;;10.43;4.03;;;;;;;17.12;66.80;101643.50;4970087;28;20146;-56
2023/10/01 09:19:03;;;;;;;11.73;4.07;;;;;;;17.02;67.40;101647.78;4965868;28;21120;-60
2023/10/01 09:21:38;;;;;;;9.32;3.40;;;;;;;17.17;67.42;101649.34;4970625;28;21516;-57
2023/10/01 09:24:39;;;;;;;14.03;4.20;;;;;;;17.12;67.44;101646.16;4970674;28;20055;-55
2023/10/01 09:27:24;;;;;;;7.25;3.25;;;;;;;17.24;67.14;101648.91;4971036;28;20571;-60
2023/10/01 09:30:27;;;;;;;10.82;4.85;;;;;;;17.48;66.17;101655.16;4967343;28;20155;-56
2023/10/01 09:33:05;;;;;;;14.50;4.15;;;;;;;17.73;65.26;101646.22;4962416;28;20054;-60
2023/10/01 09:35:49;;;;;;;15.90;4.15;;;;;;;18.07;64.10;101654.47;4966446;28;20054;-59
2023/10/01 09:38:27;;;;;;;9.32;4.18;;;;;;;18.10;63.77;101649.75;4966810;28;20412;-60
2023/10/01 09:40:56;;;;;;;9.40;4.15;;;;;;;18.15;63.33;101642.25;4967543;28;20098;-57
2023/10/01 09:43:30;;;;;;;7.97;3.45;;;;;;;18.50;62.86;101640.56;4969283;28;20115;-59
2023/10/01 09:46:00;;;;;;;10.95;4.50;;;;;;;18.73;61.28;101639.66;4966910;28;20700;-58
2023/10/01 09:48:33;;;;;;;12.32;4.22;;;;;;;18.90;60.97;101633.03;4968221;28;20550;-60
2023/10/01 09:51:08;;;;;;;12.68;4.40;;;;;;;18.80;61.02;101619.56;4967681;28;20082;-60
2023/10/01 09:53:53;;;;;;;7.18;3.45;;;;;;;19.56;59.74;101623.31;4966501;28;20150;-59
2023/10/01 09:56:26;;;;;;;10.38;3.63;;;;;;;20.07;57.50;101624.53;4965470;28;20210;-60
2023/10/01 09:58:58;;;;;;;9.20;3.97;;;;;;;20.10;56.91;101635.81;4966493;28;20051;-56
2023/10/01 10:01:31;;;;;;;12.75;4.05;;;;;;;19.95;56.57;101634.41;4968353;28;20062;-58
2023/10/01 10:04:03;;;;;;;12.13;4.57;;;;;;;19.58;57.19;101636.53;4968001;28;20074;-63
2023/10/01 10:06:32;;;;;;;10.20;3.83;;;;;;;19.02;59.22;101621.41;4966448;28;20083;-59
2023/10/01 10:09:04;;;;;;;10.60;4.43;;;;;;;19.19;59.09;101628.94;4966496;28;20532;-58
2023/10/01 10:11:36;;;;;;;10.60;4.22;;;;;;;19.41;57.46;101628.06;4967007;28;20082;-59
2023/10/01 10:14:28;;;;;;;12.30;4.57;;;;;;;19.84;56.37;101632.59;4966788;28;20113;-59
2023/10/01 10:16:57;;;;;;;9.40;4.68;;;;;;;19.89;54.64;101637.56;4966112;28;20086;-60
2023/10/01 10:19:26;;;;;;;8.00;3.83;;;;;;;20.08;54.19;101639.56;4964783;28;20043;-58
2023/10/01 10:24:30;;;;;;;7.47;3.65;;;;;;;20.35;53.35;101644.44;4968133;28;20089;-59
2023/10/01 10:27:15;;;;;;;9.95;4.13;;;;;;;20.59;52.04;101655.78;4970096;28;20097;-60
2023/10/01 10:32:29;;;;;;;15.85;3.72;;;;;;;20.16;52.57;101651.31;4970059;28;20871;-60
2023/10/01 10:35:06;;;;;;;10.43;4.10;;;;;;;20.15;53.39;101635.44;4965488;28;20423;-58
2023/10/01 10:37:36;;;;;;;12.68;4.88;;;;;;;20.45;52.15;101642.72;4967914;28;20121;-60
2023/10/01 10:43:07;;;;;;;8.02;3.50;;;;;;;21.15;51.60;101627.78;4966965;28;20057;-58
2023/10/01 10:45:45;;;;;;;12.73;5.03;;;;;;;21.06;50.78;101629.44;4966451;28;20592;-60
2023/10/01 10:48:16;;;;;;;11.75;4.35;;;;;;;20.79;51.42;101635.34;4968154;28;20142;-60
2023/10/01 10:50:49;;;;;;;16.65;4.57;;;;;;;20.89;51.91;101625.56;4968186;28;20051;-58
2023/10/01 10:53:20;;;;;;;7.90;3.22;;;;;;;21.52;50.82;101619.19;4963268;28;20071;-59
2023/10/01 10:56:35;;;;;;;10.93;4.10;;;;;;;21.91;50.35;101622.78;4966983;28;20433;-56
2023/10/01 10:59:03;;;;;;;9.98;4.47;;;;;;;21.45;50.51;101629.63;4968945;28;20082;-60
2023/10/01 11:01:44;;;;;;;13.20;4.20;;;;;;;21.64;50.09;101629.66;4968363;28;20492;-59
2023/10/01 11:04:14;;;;;;;7.82;4.15;;;;;;;22.27;48.54;101634.69;4969204;28;20043;-61
2023/10/01 11:06:42;;;;;;;7.97;4.18;;;;;;;22.19;48.25;101640.75;4966836;28;20512;-56
2023/10/01 11:09:25;;;;;;;8.55;4.03;;;;;;;21.76;48.79;101629.56;4968809;28;20382;-65
2023/10/01 11:12:19;;;;;;;10.60;4.80;;;;;;;21.97;48.15;101619.53;4966262;28;20521;-60
2023/10/01 11:17:47;;;;;;;11.75;4.75;;;;;;;21.83;47.12;101633.34;4971646;28;20101;-60
2023/10/01 11:20:22;;;;;;;8.18;4.55;;;;;;;21.96;47.13;101618.69;4971633;28;20149;-56
2023/10/01 11:22:54;;;;;;;9.88;4.38;;;;;;;21.95;47.93;101622.38;4970566;28;20497;-60
2023/10/01 11:25:23;;;;;;;12.57;4.95;;;;;;;22.48;45.43;101619.28;4970508;28;20055;-58
2023/10/01 11:28:05;;;;;;;12.07;4.25;;;;;;;22.62;46.04;101612.59;4970463;28;20082;-59
2023/10/01 11:30:42;;;;;;;7.53;4.75;;;;;;;22.65;45.43;101608.78;4970995;28;20134;-58
2023/10/01 11:35:59;;;;;;;9.48;4.53;;;;;;;22.17;46.01;101613.22;4970038;28;20097;-58
2023/10/01 11:38:28;;;;;;;9.10;4.93;;;;;;;22.34;45.54;101609.00;4968600;28;20417;-60
2023/10/01 11:41:06;;;;;;;9.35;4.95;;;;;;;22.50;45.34;101605.69;4969590;28;20498;-60
2023/10/01 11:43:45;;;;;;;13.27;4.65;;;;;;;22.94;44.47;101590.78;4972755;28;20552;-58
2023/10/01 11:46:35;;;;;;;13.00;4.50;;;;;;;22.31;44.36;101595.84;4974262;28;20058;-59
2023/10/01 11:49:09;;;;;;;8.77;4.72;;;;;;;22.23;45.37;101601.91;4969452;28;20089;-59
2023/10/01 11:51:54;;;;;;;8.80;4.63;;;;;;;22.12;44.67;101606.59;4968085;28;20618;-58
2023/10/01 11:54:43;;;;;;;14.48;4.63;;;;;;;22.61;44.80;101594.81;4969978;28;20100;-56
2023/10/01 11:57:24;;;;;;;10.70;4.55;;;;;;;22.86;44.45;101597.84;4970720;28;20517;-59
2023/10/01 11:59:56;;;;;;;8.95;4.50;;;;;;;22.93;42.54;101593.63;4969412;28;20101;-55
2023/10/01 12:02:29;;;;;;;11.27;4.72;;;;;;;23.07;42.14;101603.03;4973703;28;20112;-57
2023/10/01 12:05:07;;;;;;;9.90;4.38;;;;;;;22.79;43.17;101604.81;4971585;28;20042;-59
2023/10/01 12:07:45;;;;;;;9.10;4.40;;;;;;;22.04;43.99;101609.94;4967432;28;20125;-59
2023/10/01 12:10:34;;;;;;;8.18;4.03;;;;;;;21.44;45.99;101611.84;4964485;28;20054;-59
2023/10/01 12:13:03;;;;;;;11.60;4.68;;;;;;;21.31;45.80;101613.91;4969493;28;20058;-59
2023/10/01 12:18:17;;;;;;;7.90;4.05;;;;;;;21.13;47.02;101592.25;4964892;28;20338;-55
2023/10/01 12:20:47;;;;;;;9.65;3.45;;;;;;;21.10;47.08;101595.22;4960796;28;20774;-57
2023/10/01 12:23:16;;;;;;;13.48;4.70;;;;;;;20.85;47.30;101600.03;4967506;28;20117;-59
2023/10/01 12:28:29;;;;;;;9.13;4.65;;;;;;;21.19;47.96;101603.28;4967232;28;20082;-59
2023/10/01 12:31:02;;;;;;;13.73;4.75;;;;;;;21.66;47.09;101598.22;4968536;28;20085;-57
2023/10/01 12:33:43;;;;;;;12.30;4.20;;;;;;;21.53;46.60;101599.47;4967906;28;20469;-57